Time;durP1;ratioP1;P1;durP2;ratioP2;P2;SDS_P1;SDS_P2;PMS_P1;PMS_P2;Temp;Humidity;BMP_temperature;BMP_pressure;BME280_temperature;BME280_humidity;BME280_pressure;Samples;Min_cycle;Max_cycle;Signal;HPM_P1;HPM_P2
2023/09/08 00:00:47;;;;;;;8.20;7.15;;;;;;;17.73;81.24;101563.56;4995195;28;20030;-74
2023/09/08 00:03:12;;;;;;;8.35;7.60;;;;;;;17.70;81.72;101558.56;4999636;28;20529;-74
2023/09/08 00:05:38;;;;;;;8.65;7.55;;;;;;;17.65;82.18;101560.31;5004961;28;20037;-74
2023/09/08 00:08:04;;;;;;;8.82;7.93;;;;;;;17.62;82.74;101558.03;4999126;28;20023;-73
2023/09/08 00:10:29;;;;;;;8.73;7.82;;;;;;;17.65;82.43;101550.22;4982661;28;20038;-75
2023/09/08 00:12:55;;;;;;;9.52;7.65;;;;;;;17.63;82.60;101555.09;5000684;28;20038;-73
2023/09/08 00:15:20;;;;;;;11.73;8.43;;;;;;;17.61;82.86;101550.94;5000478;28;20037;-74
2023/09/08 00:17:47;;;;;;;13.93;8.85;;;;;;;17.60;82.75;101552.84;5009774;28;20022;-73
2023/09/08 00:20:13;;;;;;;8.70;7.80;;;;;;;17.60;82.66;101552.84;5006835;28;20042;-74
2023/09/08 00:22:38;;;;;;;10.07;7.97;;;;;;;17.57;82.76;101553.28;4999308;28;20475;-74
2023/09/08 00:25:10;;;;;;;10.15;8.95;;;;;;;17.56;83.29;101557.88;5005969;28;20045;-73
2023/09/08 00:27:35;;;;;;;8.73;7.82;;;;;;;17.63;83.06;101557.81;5012344;28;20037;-74
2023/09/08 00:30:01;;;;;;;11.00;8.40;;;;;;;17.51;83.70;101554.16;5009531;28;20018;-74
2023/09/08 00:32:27;;;;;;;8.82;7.80;;;;;;;17.45;84.55;101549.66;5006157;28;20076;-74
2023/09/08 00:34:52;;;;;;;9.35;7.88;;;;;;;17.41;84.52;101555.53;5004625;28;20022;-74
2023/09/08 00:37:18;;;;;;;8.85;8.05;;;;;;;17.35;85.06;101561.06;5007742;28;20022;-73
2023/09/08 00:39:43;;;;;;;10.90;8.00;;;;;;;17.24;85.09;101551.75;4999823;28;20037;-73
2023/09/08 00:42:09;;;;;;;8.68;7.78;;;;;;;17.10;85.31;101549.16;5001308;28;20085;-74
2023/09/08 00:44:34;;;;;;;8.80;7.90;;;;;;;16.99;85.50;101554.50;5004843;28;20465;-74
2023/09/08 00:46:59;;;;;;;9.45;8.30;;;;;;;16.88;86.28;101550.56;5010674;28;20360;-74
2023/09/08 00:49:25;;;;;;;8.90;8.00;;;;;;;16.91;87.08;101550.13;4989928;28;20033;-73
2023/09/08 00:51:50;;;;;;;9.65;8.35;;;;;;;16.96;87.26;101558.47;5005814;28;20030;-74
2023/09/08 00:54:16;;;;;;;10.73;8.88;;;;;;;16.93;87.16;101551.56;4967305;28;20050;-74
2023/09/08 00:56:41;;;;;;;9.32;8.43;;;;;;;16.90;87.23;101551.19;5007642;28;20491;-73
2023/09/08 00:59:07;;;;;;;10.27;8.25;;;;;;;16.78;87.19;101556.50;5007936;28;20028;-74
2023/09/08 01:01:34;;;;;;;10.48;9.38;;;;;;;16.75;89.05;101552.34;5009292;28;20052;-74
2023/09/08 01:04:00;;;;;;;8.75;7.65;;;;;;;16.68;88.79;101551.56;5001128;28;20125;-74
2023/09/08 01:06:25;;;;;;;8.63;7.75;;;;;;;16.59;88.21;101559.16;4986253;28;20084;-74
2023/09/08 01:08:51;;;;;;;9.98;8.90;;;;;;;16.56;89.19;101551.44;4984985;28;20475;-74
2023/09/08 01:11:17;;;;;;;9.30;8.40;;;;;;;16.49;89.55;101547.94;4985161;28;20474;-74
2023/09/08 01:13:43;;;;;;;10.23;8.93;;;;;;;16.44;90.16;101556.72;4975451;28;20057;-74
2023/09/08 01:16:08;;;;;;;9.63;8.63;;;;;;;16.39;90.05;101543.00;5007580;28;20458;-74
2023/09/08 01:18:34;;;;;;;10.40;9.30;;;;;;;16.45;91.14;101554.88;5001754;28;20512;-73
2023/09/08 01:21:08;;;;;;;11.13;9.68;;;;;;;16.46;91.00;101551.91;5006416;28;20121;-74
2023/09/08 01:23:55;;;;;;;10.20;9.10;;;;;;;16.42;90.56;101553.41;4997511;28;20133;-74
2023/09/08 01:26:21;;;;;;;10.63;9.52;;;;;;;16.31;90.96;101546.81;5004159;28;20064;-73
2023/09/08 01:28:48;;;;;;;10.13;9.13;;;;;;;16.26;90.87;101553.91;4987851;28;20096;-74
2023/09/08 01:31:14;;;;;;;9.23;8.25;;;;;;;16.20;91.45;101547.47;4974102;28;20037;-74
2023/09/08 01:33:39;;;;;;;10.23;9.27;;;;;;;16.14;92.55;101546.47;4986646;28;20057;-74
2023/09/08 01:36:05;;;;;;;10.68;9.07;;;;;;;16.11;93.87;101546.91;4973526;28;20034;-74
2023/09/08 01:38:30;;;;;;;11.63;9.32;;;;;;;16.15;94.28;101544.59;4990315;28;20088;-74
2023/09/08 01:40:55;;;;;;;10.55;9.40;;;;;;;16.14;93.96;101540.22;5006629;28;20497;-74
2023/09/08 01:43:21;;;;;;;10.35;9.18;;;;;;;16.12;93.14;101540.41;5010348;28;20490;-74
2023/09/08 01:45:46;;;;;;;10.80;9.63;;;;;;;16.10;93.23;101537.09;5008681;28;20049;-73
2023/09/08 01:48:12;;;;;;;10.45;9.27;;;;;;;16.07;93.53;101540.22;5003932;28;20017;-73
2023/09/08 01:50:37;;;;;;;10.52;9.50;;;;;;;16.04;93.55;101535.25;5000140;28;20034;-73
2023/09/08 01:53:02;;;;;;;11.40;9.60;;;;;;;16.00;93.90;101531.28;4998496;28;20030;-73
2023/09/08 01:55:28;;;;;;;11.07;9.90;;;;;;;15.95;94.42;101534.66;5004347;28;20113;-73
2023/09/08 01:57:54;;;;;;;10.18;9.20;;;;;;;15.90;94.99;101535.28;5008759;28;20040;-73
2023/09/08 02:00:19;;;;;;;10.93;9.88;;;;;;;15.92;95.04;101537.81;5005384;28;20040;-74
2023/09/08 02:02:45;;;;;;;10.73;9.63;;;;;;;15.87;94.96;101533.03;5003925;28;20022;-74
2023/09/08 02:05:10;;;;;;;11.20;10.02;;;;;;;15.83;95.27;101528.19;5001934;28;20026;-74
2023/09/08 02:07:36;;;;;;;10.55;9.45;;;;;;;15.78;94.87;101537.00;5005582;28;20038;-74
2023/09/08 02:10:01;;;;;;;12.88;10.65;;;;;;;15.74;94.82;101530.31;5003930;28;20488;-74
2023/09/08 02:12:29;;;;;;;9.88;8.98;;;;;;;15.72;95.42;101526.97;5014072;28;20036;-73
2023/09/08 02:14:55;;;;;;;11.23;9.70;;;;;;;15.69;96.55;101530.97;5006591;28;20064;-73
2023/09/08 02:17:20;;;;;;;11.25;10.05;;;;;;;15.67;96.86;101529.53;5006470;28;20116;-73
2023/09/08 02:19:49;;;;;;;11.60;10.40;;;;;;;15.66;97.64;101531.41;5007707;28;20081;-75
2023/09/08 02:22:14;;;;;;;11.25;9.98;;;;;;;15.62;96.77;101527.44;5007862;28;20087;-74
2023/09/08 02:27:15;;;;;;;12.07;10.63;;;;;;;15.60;96.75;101530.38;5213447;23;20057;-74
2023/09/08 02:29:40;;;;;;;10.50;9.50;;;;;;;15.53;97.39;101520.59;5024972;28;20026;-75
2023/09/08 02:32:06;;;;;;;14.05;9.45;;;;;;;15.51;97.17;101518.09;5019133;28;20548;-75
2023/09/08 02:34:36;;;;;;;11.68;10.48;;;;;;;15.49;97.53;101520.19;5022714;28;20087;-74
2023/09/08 02:37:01;;;;;;;12.07;10.85;;;;;;;15.46;97.89;101526.03;5028150;28;20527;-74
2023/09/08 02:39:27;;;;;;;10.55;9.50;;;;;;;15.45;97.56;101529.81;5026226;28;20056;-74
2023/09/08 02:41:54;;;;;;;11.38;10.27;;;;;;;15.42;97.88;101514.78;5025398;28;20041;-74
2023/09/08 02:44:21;;;;;;;13.10;9.98;;;;;;;15.45;97.70;101522.47;5026505;28;20044;-74
2023/09/08 02:46:47;;;;;;;10.73;9.55;;;;;;;15.48;97.66;101525.81;5028411;28;20034;-75
2023/09/08 02:49:12;;;;;;;12.60;10.32;;;;;;;15.45;97.98;101513.53;5025430;28;20179;-75
2023/09/08 02:51:38;;;;;;;10.52;9.50;;;;;;;15.46;97.71;101523.31;5028998;28;20036;-75
2023/09/08 02:54:03;;;;;;;10.38;9.23;;;;;;;15.42;97.82;101522.94;5031712;28;20025;-75
2023/09/08 02:56:28;;;;;;;9.95;8.95;;;;;;;15.35;98.18;101521.28;5016222;28;20088;-75
2023/09/08 02:58:54;;;;;;;10.82;9.07;;;;;;;15.30;98.03;101528.16;5026868;28;20025;-75
2023/09/08 03:01:22;;;;;;;10.10;9.10;;;;;;;15.26;97.81;101523.38;5025883;28;20418;-76
2023/09/08 03:03:48;;;;;;;12.35;10.73;;;;;;;15.20;97.96;101522.31;5001629;28;20471;-74
2023/09/08 03:06:14;;;;;;;11.00;9.90;;;;;;;15.17;98.60;101530.91;5026075;28;20033;-75
2023/09/08 03:08:39;;;;;;;10.25;9.00;;;;;;;15.12;98.41;101531.53;5030388;28;20108;-75
2023/09/08 03:11:08;;;;;;;11.13;8.75;;;;;;;15.09;98.49;101526.50;5013772;28;20022;-75
2023/09/08 03:13:36;;;;;;;11.82;9.60;;;;;;;15.05;98.42;101529.88;5022879;28;20025;-75
2023/09/08 03:16:04;;;;;;;11.18;10.13;;;;;;;15.00;98.80;101520.47;5020671;28;20056;-75
2023/09/08 03:18:29;;;;;;;10.20;9.15;;;;;;;14.95;99.22;101522.16;5020169;28;20026;-75
2023/09/08 03:20:54;;;;;;;9.70;8.70;;;;;;;14.91;99.95;101518.22;5024665;28;20026;-75
2023/09/08 03:23:20;;;;;;;11.30;9.10;;;;;;;14.85;100.00;101519.88;5016564;28;20013;-74
2023/09/08 03:25:45;;;;;;;11.27;9.73;;;;;;;14.82;100.00;101523.03;5027751;28;20173;-75
2023/09/08 03:28:11;;;;;;;13.02;10.60;;;;;;;14.77;100.00;101525.50;5011568;28;20033;-75
2023/09/08 03:30:37;;;;;;;10.18;9.18;;;;;;;14.74;100.00;101526.75;5018669;28;20376;-75
2023/09/08 03:33:02;;;;;;;10.50;9.50;;;;;;;14.68;100.00;101524.88;5017324;28;20026;-74
2023/09/08 03:35:28;;;;;;;10.60;9.52;;;;;;;14.65;100.00;101528.78;5025219;28;20705;-74
2023/09/08 03:37:53;;;;;;;10.35;9.25;;;;;;;14.61;100.00;101522.16;5019664;28;20100;-75
2023/09/08 03:40:18;;;;;;;12.65;10.13;;;;;;;14.59;100.00;101520.66;5022860;28;20103;-75
2023/09/08 03:42:44;;;;;;;11.65;9.95;;;;;;;14.56;100.00;101521.91;5016460;28;20453;-75
2023/09/08 03:45:09;;;;;;;11.80;10.55;;;;;;;14.57;100.00;101526.31;5026601;28;20440;-75
2023/09/08 03:47:35;;;;;;;11.77;10.57;;;;;;;14.52;100.00;101528.78;5025544;28;20060;-75
2023/09/08 03:50:00;;;;;;;12.25;11.02;;;;;;;14.48;100.00;101530.22;5030150;28;20048;-75
2023/09/08 03:52:26;;;;;;;12.43;10.85;;;;;;;14.43;100.00;101520.03;5016945;28;20711;-75
2023/09/08 03:54:51;;;;;;;14.23;12.48;;;;;;;14.43;100.00;101528.16;5021373;28;20040;-75
2023/09/08 03:57:17;;;;;;;13.32;11.82;;;;;;;14.43;100.00;101524.63;5016098;28;20029;-75
2023/09/08 03:59:42;;;;;;;13.32;12.00;;;;;;;14.42;100.00;101525.66;5016807;28;20046;-75
2023/09/08 04:02:07;;;;;;;12.32;10.85;;;;;;;14.37;100.00;101524.41;5028354;28;20026;-75
2023/09/08 04:04:33;;;;;;;13.02;11.57;;;;;;;14.35;100.00;101525.66;5028554;28;20039;-75
2023/09/08 04:06:58;;;;;;;12.20;10.95;;;;;;;14.34;100.00;101527.50;5042713;28;20474;-74
2023/09/08 04:09:24;;;;;;;12.10;10.90;;;;;;;14.35;100.00;101525.66;5038427;28;20029;-75
2023/09/08 04:11:49;;;;;;;14.25;12.75;;;;;;;14.30;100.00;101520.81;5025139;28;20100;-74
2023/09/08 04:14:14;;;;;;;14.40;12.90;;;;;;;14.31;100.00;101519.78;5023159;28;20430;-75
2023/09/08 04:16:40;;;;;;;14.23;12.73;;;;;;;14.31;100.00;101525.22;5030526;28;20037;-75
2023/09/08 04:19:05;;;;;;;15.93;13.05;;;;;;;14.31;100.00;101517.09;5030676;28;20033;-75
2023/09/08 04:21:30;;;;;;;14.40;12.93;;;;;;;14.34;100.00;101523.97;5024508;28;20092;-75
2023/09/08 04:23:56;;;;;;;14.18;12.35;;;;;;;14.34;100.00;101532.94;5019399;28;20378;-75
2023/09/08 04:26:21;;;;;;;13.63;12.23;;;;;;;14.34;100.00;101519.38;5015198;28;20046;-75
2023/09/08 04:28:47;;;;;;;14.57;12.27;;;;;;;14.39;100.00;101526.88;5022442;28;20862;-75
2023/09/08 04:31:12;;;;;;;13.93;11.68;;;;;;;14.35;100.00;101522.94;5029642;28;20026;-75
2023/09/08 04:33:38;;;;;;;14.95;12.25;;;;;;;14.36;100.00;101522.72;5022277;28;20351;-76
2023/09/08 04:36:04;;;;;;;14.30;12.10;;;;;;;14.40;100.00;101520.44;5022823;28;20493;-75
2023/09/08 04:38:29;;;;;;;14.30;12.80;;;;;;;14.36;100.00;101525.44;5020129;28;20053;-75
2023/09/08 04:40:54;;;;;;;13.70;12.30;;;;;;;14.35;100.00;101525.66;5025481;28;20025;-75
2023/09/08 04:43:20;;;;;;;14.43;12.93;;;;;;;14.32;100.00;101524.16;5031718;28;20025;-75
2023/09/08 04:45:45;;;;;;;14.50;12.20;;;;;;;14.28;100.00;101522.94;5028253;28;20107;-75
2023/09/08 04:48:11;;;;;;;14.38;12.45;;;;;;;14.34;100.00;101522.09;5015647;28;20030;-75
2023/09/08 04:50:36;;;;;;;16.35;14.35;;;;;;;14.35;100.00;101522.94;5026261;28;20033;-75
2023/09/08 04:53:01;;;;;;;14.50;12.23;;;;;;;14.34;100.00;101526.69;5019383;28;20039;-75
2023/09/08 04:55:27;;;;;;;19.40;13.75;;;;;;;14.30;100.00;101525.44;5025760;28;20032;-74
2023/09/08 04:57:52;;;;;;;15.57;13.65;;;;;;;14.29;100.00;101532.72;5017924;28;20477;-75
2023/09/08 05:00:18;;;;;;;15.13;13.40;;;;;;;14.32;100.00;101532.28;5015734;28;20493;-76
2023/09/08 05:02:44;;;;;;;13.23;11.82;;;;;;;14.27;100.00;101532.09;5031814;28;20029;-75
2023/09/08 05:05:10;;;;;;;15.52;12.70;;;;;;;14.21;100.00;101530.19;5019724;28;20037;-74
2023/09/08 05:07:35;;;;;;;14.48;12.93;;;;;;;14.14;100.00;101532.88;5021811;28;20033;-75
2023/09/08 05:10:00;;;;;;;14.05;12.13;;;;;;;14.08;100.00;101541.81;5019692;28;20494;-75
2023/09/08 05:12:26;;;;;;;14.20;12.40;;;;;;;14.04;100.00;101533.28;5020620;28;20048;-75
2023/09/08 05:14:56;;;;;;;16.35;12.98;;;;;;;14.11;100.00;101533.28;5022734;28;20101;-75
2023/09/08 05:17:22;;;;;;;15.10;12.45;;;;;;;14.14;100.00;101532.03;5028805;28;20116;-75
2023/09/08 05:19:48;;;;;;;16.02;13.45;;;;;;;14.12;100.00;101534.97;5024699;28;20025;-74
2023/09/08 05:22:14;;;;;;;15.45;13.60;;;;;;;14.12;100.00;101537.66;5017568;28;20040;-75
2023/09/08 05:24:39;;;;;;;15.73;14.13;;;;;;;14.13;100.00;101543.91;5024308;28;20049;-75
2023/09/08 05:27:04;;;;;;;14.75;13.25;;;;;;;14.17;100.00;101537.06;5027421;28;20091;-74
2023/09/08 05:29:30;;;;;;;16.60;13.50;;;;;;;14.25;100.00;101542.28;5025945;28;20030;-75
2023/09/08 05:31:55;;;;;;;15.20;13.65;;;;;;;14.34;100.00;101548.34;5037797;28;20021;-75
2023/09/08 05:34:21;;;;;;;15.65;14.10;;;;;;;14.44;100.00;101543.38;5034004;28;20033;-75
2023/09/08 05:36:47;;;;;;;15.32;13.73;;;;;;;14.51;100.00;101543.38;5020333;28;20107;-75
2023/09/08 05:39:14;;;;;;;14.18;12.50;;;;;;;14.64;100.00;101540.69;5021657;28;20034;-75
2023/09/08 05:41:39;;;;;;;14.77;13.10;;;;;;;14.74;100.00;101539.47;5029396;28;20021;-74
2023/09/08 05:44:05;;;;;;;14.50;12.95;;;;;;;14.87;100.00;101541.38;5016724;28;20386;-74
2023/09/08 05:46:30;;;;;;;15.07;12.38;;;;;;;14.97;100.00;101545.31;4984644;28;20031;-75
2023/09/08 05:48:56;;;;;;;14.65;13.10;;;;;;;15.08;100.00;101540.28;5023891;28;20208;-76
2023/09/08 05:51:22;;;;;;;15.05;12.85;;;;;;;15.26;100.00;101545.91;5024426;28;20456;-76
2023/09/08 05:53:47;;;;;;;12.25;11.13;;;;;;;15.37;100.00;101544.44;5021988;28;20049;-75
2023/09/08 05:56:13;;;;;;;12.73;11.43;;;;;;;15.52;100.00;101541.47;5025488;28;20043;-75
2023/09/08 05:58:38;;;;;;;13.40;12.00;;;;;;;15.67;100.00;101546.63;5028037;28;20034;-74
2023/09/08 06:01:04;;;;;;;14.90;12.27;;;;;;;15.90;99.51;101546.16;5017449;28;20394;-75
2023/09/08 06:03:29;;;;;;;12.40;11.13;;;;;;;16.61;96.19;101553.47;5016610;28;20053;-75
2023/09/08 06:05:56;;;;;;;15.40;11.10;;;;;;;17.91;89.79;101542.81;5020963;28;20075;-75
2023/09/08 06:08:21;;;;;;;12.65;10.88;;;;;;;19.33;81.25;101536.03;5023794;28;20072;-75
2023/09/08 06:10:46;;;;;;;11.95;10.75;;;;;;;20.57;74.46;101539.28;5021667;28;20030;-75
2023/09/08 06:13:12;;;;;;;11.75;10.55;;;;;;;21.59;68.03;101548.47;5020125;28;20339;-75
2023/09/08 06:15:37;;;;;;;11.50;10.27;;;;;;;22.54;64.62;101542.72;5025653;28;20037;-75
2023/09/08 06:18:03;;;;;;;12.35;9.68;;;;;;;23.24;61.18;101550.09;5027562;28;20021;-75
2023/09/08 06:20:28;;;;;;;11.43;9.65;;;;;;;23.89;58.68;101552.59;5019477;28;20033;-75
2023/09/08 06:22:54;;;;;;;14.88;9.25;;;;;;;23.98;57.12;101547.44;5024929;28;20017;-74
2023/09/08 06:25:19;;;;;;;10.13;9.10;;;;;;;24.54;55.43;101554.09;5022907;28;20029;-75
2023/09/08 06:27:45;;;;;;;10.82;9.35;;;;;;;25.26;53.50;101553.25;5010736;28;20411;-73
2023/09/08 06:30:14;;;;;;;9.30;8.32;;;;;;;25.24;53.12;101550.75;5018509;28;20026;-74
2023/09/08 06:32:39;;;;;;;16.58;9.02;;;;;;;25.87;51.52;101554.97;5022745;28;20054;-74
2023/09/08 06:35:05;;;;;;;9.15;8.23;;;;;;;26.58;49.29;101556.72;5017289;28;20382;-74
2023/09/08 06:37:36;;;;;;;9.00;8.10;;;;;;;27.21;47.59;101553.13;5026879;28;20067;-76
2023/09/08 06:40:01;;;;;;;11.60;8.25;;;;;;;26.83;47.73;101554.91;5016344;28;20037;-74
2023/09/08 06:42:26;;;;;;;8.70;7.55;;;;;;;26.88;47.34;101552.91;5024372;28;20075;-77
2023/09/08 06:44:52;;;;;;;10.15;8.02;;;;;;;26.92;47.25;101547.63;5027636;28;20037;-75
2023/09/08 06:47:17;;;;;;;8.93;8.02;;;;;;;27.14;46.11;101560.13;5015311;28;20052;-75
2023/09/08 06:49:43;;;;;;;8.68;7.82;;;;;;;27.36;45.90;101554.88;5024653;28;20024;-73
2023/09/08 06:52:08;;;;;;;10.70;7.95;;;;;;;27.09;46.13;101556.28;5031231;28;20355;-74
2023/09/08 06:54:34;;;;;;;8.55;7.65;;;;;;;27.66;45.07;101558.44;5022272;28;20029;-74
2023/09/08 06:56:59;;;;;;;10.48;7.25;;;;;;;27.31;46.12;101554.94;5021658;28;20044;-74
2023/09/08 06:59:27;;;;;;;10.38;6.97;;;;;;;28.41;42.92;101557.97;5019152;28;20534;-74
2023/09/08 07:01:52;;;;;;;9.32;7.10;;;;;;;28.29;42.82;101556.47;5026302;28;20573;-75
2023/09/08 07:04:18;;;;;;;9.23;6.93;;;;;;;28.34;43.23;101557.50;5016245;28;20044;-75
2023/09/08 07:06:46;;;;;;;9.18;6.78;;;;;;;28.68;41.79;101559.16;5030024;28;20028;-74
2023/09/08 07:09:15;;;;;;;7.40;6.70;;;;;;;28.56;42.34;101551.31;5017592;28;20124;-74
2023/09/08 07:11:40;;;;;;;7.43;6.78;;;;;;;29.18;40.63;101558.59;5029212;28;20029;-75
2023/09/08 07:14:06;;;;;;;7.45;6.13;;;;;;;29.53;40.75;101563.72;5020958;28;20029;-76
2023/09/08 07:16:31;;;;;;;7.00;6.28;;;;;;;30.12;39.14;101557.50;5019660;28;20048;-75
2023/09/08 07:18:57;;;;;;;9.07;6.45;;;;;;;30.03;40.00;101560.19;5022460;28;20025;-75
2023/09/08 07:21:23;;;;;;;7.13;6.35;;;;;;;31.56;37.10;101564.06;5025814;28;20060;-75
2023/09/08 07:23:51;;;;;;;7.57;5.30;;;;;;;31.51;37.18;101565.03;5017440;28;20053;-75
2023/09/08 07:26:17;;;;;;;5.70;5.10;;;;;;;31.64;37.35;101554.09;5017360;28;20501;-75
2023/09/08 07:28:44;;;;;;;6.20;5.60;;;;;;;32.23;35.21;101558.41;5016333;28;20112;-75
2023/09/08 07:31:10;;;;;;;5.78;4.88;;;;;;;32.53;35.48;101558.56;5024865;28;20037;-75
2023/09/08 07:33:35;;;;;;;8.63;5.53;;;;;;;33.59;33.38;101557.06;5012767;28;20458;-75
2023/09/08 07:36:07;;;;;;;7.93;5.25;;;;;;;33.57;33.08;101564.94;5018507;28;20037;-75
2023/09/08 07:38:36;;;;;;;7.40;5.70;;;;;;;33.16;33.45;101560.88;5020560;28;20022;-75
2023/09/08 07:41:01;;;;;;;5.95;5.07;;;;;;;33.50;33.24;101564.69;5024975;28;20041;-75
2023/09/08 07:43:27;;;;;;;6.05;5.45;;;;;;;33.08;33.45;101571.75;5026826;28;20033;-75
2023/09/08 07:45:52;;;;;;;6.78;5.72;;;;;;;33.55;32.45;101564.47;5021135;28;20022;-75
2023/09/08 07:48:18;;;;;;;6.03;5.43;;;;;;;34.43;31.35;101572.22;5016813;28;20482;-74
2023/09/08 07:50:43;;;;;;;6.00;5.40;;;;;;;33.90;31.82;101569.84;5031639;28;20026;-75
2023/09/08 07:53:09;;;;;;;6.00;5.20;;;;;;;33.44;32.69;101563.22;5021208;28;20026;-74
2023/09/08 07:55:36;;;;;;;7.20;5.38;;;;;;;33.28;32.92;101563.78;5024173;28;20103;-74
2023/09/08 07:58:03;;;;;;;6.88;6.20;;;;;;;32.98;33.55;101557.34;5016915;28;20279;-73
2023/09/08 08:00:29;;;;;;;7.45;5.68;;;;;;;33.36;32.64;101570.50;5016707;28;20030;-74
2023/09/08 08:02:55;;;;;;;6.70;5.25;;;;;;;34.73;30.86;101569.31;5024326;28;20370;-74
2023/09/08 08:05:20;;;;;;;7.72;5.47;;;;;;;34.50;31.82;101566.09;5025598;28;20029;-73
2023/09/08 08:07:46;;;;;;;6.25;5.65;;;;;;;33.84;32.68;101568.41;5027178;23;20057;-73
2023/09/08 08:10:11;;;;;;;7.00;5.53;;;;;;;34.60;31.54;101565.66;5012657;28;20022;-73
2023/09/08 08:12:37;;;;;;;6.45;5.20;;;;;;;35.01;30.72;101575.09;5029192;28;20048;-74
2023/09/08 08:15:04;;;;;;;10.40;4.93;;;;;;;35.69;29.21;101563.66;5021064;28;20057;-73
2023/09/08 08:17:30;;;;;;;6.13;5.30;;;;;;;34.42;31.30;101570.63;5022559;28;20026;-74
2023/09/08 08:19:56;;;;;;;6.47;5.00;;;;;;;36.39;27.73;101560.50;5012555;28;20029;-73
2023/09/08 08:22:21;;;;;;;5.38;4.80;;;;;;;35.38;29.02;101565.06;5024511;28;20351;-74
2023/09/08 08:24:47;;;;;;;6.18;4.85;;;;;;;35.35;29.65;101566.56;5016976;28;20394;-74
2023/09/08 08:27:12;;;;;;;6.50;5.30;;;;;;;34.96;29.52;101566.09;5020114;28;20439;-73
2023/09/08 08:29:38;;;;;;;6.10;5.25;;;;;;;33.74;31.10;101561.25;5025149;28;20034;-74
2023/09/08 08:32:04;;;;;;;9.05;5.38;;;;;;;34.89;29.51;101561.88;5021443;28;20025;-73
2023/09/08 08:34:29;;;;;;;5.95;4.50;;;;;;;35.11;29.25;101567.41;5018054;28;20100;-73
2023/09/08 08:36:55;;;;;;;7.38;4.47;;;;;;;36.09;28.65;101566.50;5015224;28;20618;-73
2023/09/08 08:39:20;;;;;;;5.88;5.28;;;;;;;34.79;29.94;101562.31;5009630;28;20557;-73
2023/09/08 08:41:46;;;;;;;7.13;5.20;;;;;;;34.86;29.85;101562.56;5014973;28;20753;-73
2023/09/08 08:44:11;;;;;;;7.95;4.28;;;;;;;35.88;28.80;101554.63;5016405;28;20068;-74
2023/09/08 08:46:37;;;;;;;6.97;5.25;;;;;;;35.73;27.52;101557.00;5012041;28;20029;-74
2023/09/08 08:49:05;;;;;;;7.95;5.07;;;;;;;35.13;29.49;101563.06;5024568;28;20025;-74
2023/09/08 08:51:31;;;;;;;6.13;4.50;;;;;;;35.97;28.59;101560.94;5019763;28;20577;-74
2023/09/08 08:53:57;;;;;;;8.02;5.22;;;;;;;34.80;29.86;101560.34;5022258;28;20095;-73
2023/09/08 08:56:22;;;;;;;7.28;4.85;;;;;;;36.40;28.57;101559.34;5027398;28;20041;-73
2023/09/08 08:58:48;;;;;;;5.10;4.38;;;;;;;37.06;27.26;101570.31;5017873;28;20080;-73
2023/09/08 09:01:13;;;;;;;5.75;4.65;;;;;;;37.56;26.05;101567.09;4987425;28;20044;-74
2023/09/08 09:03:38;;;;;;;7.57;4.70;;;;;;;37.80;25.27;101566.03;4992640;28;20030;-73
2023/09/08 09:06:04;;;;;;;9.15;4.65;;;;;;;37.56;25.37;101564.31;5021965;28;20037;-73
2023/09/08 09:08:29;;;;;;;7.45;4.80;;;;;;;37.91;25.11;101567.13;5016830;28;20022;-74
2023/09/08 09:10:55;;;;;;;5.80;4.80;;;;;;;36.92;25.93;101559.53;4997418;28;20443;-73
2023/09/08 09:13:21;;;;;;;7.35;4.93;;;;;;;37.02;25.78;101561.00;5018699;28;20025;-74
2023/09/08 09:15:48;;;;;;;8.63;4.78;;;;;;;36.72;26.77;101559.41;5024220;28;20386;-73
2023/09/08 09:18:17;;;;;;;6.50;4.88;;;;;;;37.23;26.32;101554.28;4985865;28;20045;-73
2023/09/08 09:20:53;;;;;;;12.32;5.00;;;;;;;37.14;26.51;101551.66;5028040;28;20039;-73
2023/09/08 09:23:32;;;;;;;10.73;5.30;;;;;;;37.26;26.35;101551.56;5023452;28;20037;-73
2023/09/08 09:25:58;;;;;;;8.80;5.25;;;;;;;36.75;27.15;101554.25;5000177;28;20037;-73
2023/09/08 09:28:24;;;;;;;5.60;4.57;;;;;;;36.84;27.25;101554.91;5022498;28;20045;-73
2023/09/08 09:30:54;;;;;;;8.77;5.05;;;;;;;37.26;26.30;101554.34;5020212;28;20040;-73
2023/09/08 09:33:20;;;;;;;8.73;5.10;;;;;;;37.47;26.30;101553.28;5022867;28;20065;-73
2023/09/08 09:35:53;;;;;;;7.63;4.70;;;;;;;37.22;27.06;101547.88;5010614;28;20026;-74
2023/09/08 09:38:19;;;;;;;6.97;4.93;;;;;;;37.03;27.11;101550.59;5013198;28;20070;-73
2023/09/08 09:40:45;;;;;;;7.13;5.15;;;;;;;37.34;26.26;101543.31;5015187;28;20036;-73
2023/09/08 09:43:11;;;;;;;9.70;4.85;;;;;;;37.99;25.87;101547.59;5011433;28;20076;-74
2023/09/08 09:45:37;;;;;;;9.48;5.30;;;;;;;37.26;26.75;101543.13;5021188;28;20037;-73
2023/09/08 09:48:04;;;;;;;9.30;5.13;;;;;;;37.07;26.73;101551.50;5016278;28;20049;-73
2023/09/08 09:50:37;;;;;;;7.88;5.10;;;;;;;37.16;26.87;101546.50;4999659;28;20026;-73
2023/09/08 09:53:11;;;;;;;7.68;4.50;;;;;;;38.33;25.58;101545.03;5015657;28;20408;-74
2023/09/08 09:55:39;;;;;;;;;;;;;;;38.02;25.39;101538.41;5022544;28;20030;-73
2023/09/08 09:58:05;;;;;;;8.15;4.78;;;;;;;38.06;25.62;101539.31;5014878;28;19913;-73
2023/09/08 10:00:32;;;;;;;5.47;4.72;;;;;;;36.55;28.34;101535.34;5014575;28;20471;-73
2023/09/08 10:02:58;;;;;;;7.40;5.10;;;;;;;37.41;27.17;101532.25;5019140;28;20029;-73
2023/09/08 10:05:24;;;;;;;7.50;4.53;;;;;;;38.51;25.37;101540.59;4996828;28;20057;-74
2023/09/08 10:07:49;;;;;;;8.55;5.10;;;;;;;37.62;26.29;101543.19;5014792;28;20065;-74
2023/09/08 10:10:15;;;;;;;8.48;5.03;;;;;;;36.41;27.61;101537.75;5011773;28;20088;-73
2023/09/08 10:12:46;;;;;;;6.68;5.00;;;;;;;38.35;25.00;101545.47;5007295;28;20018;-73
2023/09/08 10:15:12;;;;;;;10.00;5.50;;;;;;;38.00;25.58;101536.00;4995587;28;20173;-73
2023/09/08 10:17:37;;;;;;;8.27;4.60;;;;;;;36.25;27.88;101529.28;5017362;28;20032;-73
2023/09/08 10:20:11;;;;;;;9.02;4.43;;;;;;;38.93;24.52;101543.75;4999868;28;20038;-74
2023/09/08 10:22:37;;;;;;;6.50;5.10;;;;;;;38.42;24.81;101536.38;4993823;28;20021;-74
2023/09/08 10:25:04;;;;;;;8.57;4.35;;;;;;;38.41;25.23;101535.59;5023652;28;20433;-74
2023/09/08 10:27:29;;;;;;;7.13;4.50;;;;;;;39.20;24.78;101535.31;4995799;28;20025;-74
2023/09/08 10:29:54;;;;;;;5.82;4.88;;;;;;;38.92;24.38;101534.47;5017892;28;20343;-74
2023/09/08 10:32:20;;;;;;;5.40;4.25;;;;;;;39.15;24.21;101527.19;5008620;28;20033;-74
2023/09/08 10:34:45;;;;;;;6.22;4.68;;;;;;;38.58;25.12;101547.53;5025071;28;20489;-73
2023/09/08 10:37:20;;;;;;;6.93;5.00;;;;;;;38.25;25.05;101534.84;4999237;28;20417;-74
2023/09/08 10:39:46;;;;;;;7.82;4.85;;;;;;;38.73;24.14;101532.53;5026414;28;20053;-74
2023/09/08 10:42:20;;;;;;;8.55;4.97;;;;;;;36.24;27.17;101524.84;5000474;28;20026;-74
2023/09/08 10:44:54;;;;;;;12.27;5.13;;;;;;;37.76;25.79;101532.25;5025465;28;20064;-74
2023/09/08 10:47:24;;;;;;;;;;;;;;;39.49;22.92;101527.31;5023022;28;20312;-74
2023/09/08 10:49:54;;;;;;;8.10;4.85;;;;;;;39.22;23.15;101530.09;5011765;28;19995;-74
2023/09/08 10:52:24;;;;;;;5.68;4.65;;;;;;;39.54;22.50;101524.97;5019210;28;20034;-74
2023/09/08 10:55:08;;;;;;;6.78;4.70;;;;;;;38.63;23.93;101527.53;5025054;28;20025;-74
2023/09/08 10:57:33;;;;;;;;;;;;;;;38.63;23.98;101531.16;5027922;28;20087;-74
2023/09/08 11:00:14;;;;;;;5.95;4.63;;;;;;;37.60;25.88;101528.69;5028043;28;19917;-73
2023/09/08 11:02:50;;;;;;;7.93;5.05;;;;;;;37.35;26.97;101528.09;5027921;28;20029;-73
2023/09/08 11:05:19;;;;;;;6.65;4.82;;;;;;;37.81;25.79;101538.75;5029720;28;20083;-74
2023/09/08 11:07:45;;;;;;;7.03;4.90;;;;;;;37.60;26.73;101523.88;5024738;28;20107;-74
2023/09/08 11:10:12;;;;;;;6.68;4.88;;;;;;;39.19;23.82;101528.03;5033596;28;20410;-73
2023/09/08 11:12:37;;;;;;;6.97;4.70;;;;;;;39.82;23.48;101522.94;5035585;28;20029;-75
2023/09/08 11:15:05;;;;;;;5.35;4.70;;;;;;;39.99;23.87;101522.34;5021464;28;20038;-74